createdAt,value
2023-01-21T00:00:59.338Z,6.13
2023-01-21T00:03:26.050Z,6.32
2023-01-21T00:05:52.839Z,7.60
2023-01-21T00:08:19.503Z,6.80
2023-01-21T00:10:46.277Z,6.40
2023-01-21T00:13:12.947Z,6.85
2023-01-21T00:15:39.728Z,6.10
2023-01-21T00:18:06.978Z,7.63
2023-01-21T00:20:33.898Z,7.15
2023-01-21T00:23:00.595Z,6.32
2023-01-21T00:25:27.272Z,6.80
2023-01-21T00:27:53.911Z,6.43
2023-01-21T00:30:21.302Z,6.60
2023-01-21T00:32:47.913Z,6.20
2023-01-21T00:35:15.164Z,5.22
2023-01-21T00:37:41.868Z,5.45
2023-01-21T00:40:09.170Z,6.47
2023-01-21T00:42:35.803Z,6.68
2023-01-21T00:45:02.677Z,6.05
2023-01-21T00:47:29.314Z,6.15
2023-01-21T00:49:55.946Z,6.22
2023-01-21T00:52:22.643Z,6.50
2023-01-21T00:54:49.293Z,6.22
2023-01-21T00:57:16.348Z,5.78
2023-01-21T00:59:43.303Z,5.88
2023-01-21T01:02:10.302Z,6.57
2023-01-21T01:04:37.007Z,6.50
2023-01-21T01:07:04.362Z,6.72
2023-01-21T01:09:31.104Z,6.80
2023-01-21T01:11:57.785Z,8.02
2023-01-21T01:14:24.538Z,9.02
2023-01-21T01:16:51.186Z,9.30
2023-01-21T01:19:17.958Z,10.35
2023-01-21T01:21:44.674Z,8.48
2023-01-21T01:24:11.422Z,6.30
2023-01-21T01:26:39.521Z,6.72
2023-01-21T01:29:11.425Z,6.20
2023-01-21T01:31:38.199Z,6.85
2023-01-21T01:34:04.987Z,6.60
2023-01-21T01:36:31.654Z,6.25
2023-01-21T01:38:59.145Z,4.80
2023-01-21T01:41:29.473Z,4.75
2023-01-21T01:44:04.796Z,4.55
2023-01-21T01:46:36.992Z,4.90
2023-01-21T01:49:18.105Z,4.65
2023-01-21T01:51:58.971Z,5.30
2023-01-21T01:54:33.853Z,4.90
2023-01-21T01:57:02.922Z,4.50
2023-01-21T01:59:30.969Z,5.07
2023-01-21T02:02:03.582Z,4.40
2023-01-21T02:04:37.169Z,4.40
2023-01-21T02:07:04.936Z,4.18
2023-01-21T02:09:31.823Z,4.72
2023-01-21T02:12:01.393Z,4.40
2023-01-21T02:14:30.533Z,4.50
2023-01-21T02:16:59.898Z,4.55
2023-01-21T02:20:02.491Z,5.45
2023-01-21T02:22:49.364Z,4.55
2023-01-21T02:26:03.865Z,4.63
2023-01-21T02:28:51.652Z,5.53
2023-01-21T02:31:33.561Z,5.55
2023-01-21T02:34:38.105Z,5.53
2023-01-21T02:37:25.517Z,4.88
2023-01-21T02:39:55.068Z,5.32
2023-01-21T02:42:46.152Z,5.15
2023-01-21T02:45:37.953Z,5.53
2023-01-21T02:48:27.904Z,5.68
2023-01-21T02:50:55.248Z,5.72
2023-01-21T02:53:33.388Z,6.43
2023-01-21T02:56:09.583Z,6.30
2023-01-21T02:58:42.926Z,5.63
2023-01-21T03:01:46.765Z,5.32
2023-01-21T03:04:31.928Z,4.78
2023-01-21T03:07:10.338Z,3.90
2023-01-21T03:09:37.384Z,3.83
2023-01-21T03:12:13.150Z,4.65
2023-01-21T03:15:09.686Z,4.22
2023-01-21T03:17:49.688Z,4.32
2023-01-21T03:20:24.986Z,4.25
2023-01-21T03:22:56.805Z,4.20
2023-01-21T03:25:25.608Z,3.33
2023-01-21T03:27:54.095Z,3.67
2023-01-21T03:30:24.212Z,4.40
2023-01-21T03:32:53.091Z,3.20
2023-01-21T03:35:28.667Z,3.35
2023-01-21T03:38:01.743Z,3.10
2023-01-21T03:40:41.943Z,3.33
2023-01-21T03:43:09.782Z,2.75
2023-01-21T03:45:44.678Z,2.80
2023-01-21T03:48:20.960Z,3.08
2023-01-21T03:51:01.305Z,3.22
2023-01-21T03:53:28.605Z,3.03
2023-01-21T03:55:55.292Z,2.95
2023-01-21T03:58:21.990Z,3.00
2023-01-21T04:00:49.312Z,3.00
2023-01-21T04:03:15.987Z,2.83
2023-01-21T04:05:42.742Z,2.83
2023-01-21T04:08:09.391Z,2.40
2023-01-21T04:10:36.023Z,2.90
2023-01-21T04:13:02.641Z,2.80
2023-01-21T04:15:29.306Z,2.45
2023-01-21T04:17:55.940Z,3.20
2023-01-21T04:20:22.644Z,3.20
2023-01-21T04:22:49.280Z,3.20
2023-01-21T04:25:16.114Z,3.03
2023-01-21T04:27:42.797Z,3.97
2023-01-21T04:30:10.027Z,3.78
2023-01-21T04:32:37.583Z,3.08
2023-01-21T04:35:04.584Z,3.10
2023-01-21T04:37:31.311Z,3.05
2023-01-21T04:39:57.968Z,3.22
2023-01-21T04:42:24.569Z,2.60
2023-01-21T04:44:51.200Z,2.47
2023-01-21T04:47:17.822Z,2.92
2023-01-21T04:49:44.495Z,3.03
2023-01-21T04:52:11.094Z,2.45
2023-01-21T04:54:37.835Z,2.30
2023-01-21T04:57:04.502Z,2.50
2023-01-21T04:59:31.184Z,2.95
2023-01-21T05:01:58.057Z,3.10
2023-01-21T05:04:24.732Z,3.13
2023-01-21T05:06:51.504Z,3.30
2023-01-21T05:09:18.145Z,2.28
2023-01-21T05:11:44.899Z,3.13
2023-01-21T05:14:11.564Z,2.72
2023-01-21T05:16:38.374Z,3.33
2023-01-21T05:19:05.127Z,3.35
2023-01-21T05:21:31.806Z,3.45
2023-01-21T05:23:58.464Z,3.17
2023-01-21T05:26:25.142Z,3.20
2023-01-21T05:28:51.800Z,2.92
2023-01-21T05:31:18.625Z,3.08
2023-01-21T05:33:47.214Z,3.00
2023-01-21T05:36:13.956Z,3.17
2023-01-21T05:38:40.634Z,3.38
2023-01-21T05:41:07.355Z,3.42
2023-01-21T05:43:34.206Z,3.40
2023-01-21T05:46:01.241Z,3.60
2023-01-21T05:48:29.598Z,3.00
2023-01-21T05:50:58.380Z,3.30
2023-01-21T05:53:25.981Z,3.30
2023-01-21T05:55:54.546Z,3.63
2023-01-21T05:58:21.898Z,2.90
2023-01-21T06:00:48.896Z,3.35
2023-01-21T06:03:16.799Z,2.83
2023-01-21T06:05:44.577Z,3.40
2023-01-21T06:08:11.995Z,3.53
2023-01-21T06:10:39.278Z,4.10
2023-01-21T06:13:05.931Z,3.95
2023-01-21T06:15:33.761Z,4.28
2023-01-21T06:18:01.258Z,3.38
2023-01-21T06:20:31.565Z,4.00
2023-01-21T06:22:58.972Z,3.97
2023-01-21T06:25:26.208Z,4.03
2023-01-21T06:27:56.369Z,4.45
2023-01-21T06:30:24.587Z,4.15
2023-01-21T06:32:51.603Z,4.10
2023-01-21T06:35:18.924Z,5.07
2023-01-21T06:37:46.028Z,5.28
2023-01-21T06:40:13.952Z,5.65
2023-01-21T06:42:40.642Z,4.57
2023-01-21T06:45:07.885Z,5.43
2023-01-21T06:47:35.320Z,6.53
2023-01-21T06:50:02.008Z,6.72
2023-01-21T06:52:28.689Z,5.65
2023-01-21T06:54:55.380Z,6.55
2023-01-21T06:57:22.075Z,6.80
2023-01-21T06:59:48.751Z,5.18
2023-01-21T07:02:15.510Z,7.60
2023-01-21T07:04:42.212Z,6.65
2023-01-21T07:07:08.886Z,6.65
2023-01-21T07:09:35.545Z,6.18
2023-01-21T07:12:02.370Z,7.32
2023-01-21T07:14:29.156Z,5.35
2023-01-21T07:16:56.743Z,5.90
2023-01-21T07:19:23.544Z,6.90
2023-01-21T07:21:50.797Z,7.10
2023-01-21T07:24:17.475Z,6.90
2023-01-21T07:26:44.219Z,6.88
2023-01-21T07:29:10.897Z,6.65
2023-01-21T07:31:37.736Z,7.10
2023-01-21T07:34:04.502Z,6.78
2023-01-21T07:36:31.377Z,7.07
2023-01-21T07:38:58.296Z,7.22
2023-01-21T07:41:25.130Z,7.55
2023-01-21T07:43:51.843Z,6.47
2023-01-21T07:46:20.183Z,6.50
2023-01-21T07:48:53.119Z,7.50
2023-01-21T07:51:20.928Z,7.45
2023-01-21T07:53:47.663Z,7.10
2023-01-21T07:56:15.027Z,7.30
2023-01-21T07:58:41.960Z,7.00
2023-01-21T08:01:09.566Z,7.38
2023-01-21T08:03:37.419Z,6.80
2023-01-21T08:06:05.657Z,7.60
2023-01-21T08:08:33.257Z,7.88
2023-01-21T08:11:00.086Z,8.10
2023-01-21T08:13:26.855Z,6.57
2023-01-21T08:15:56.035Z,6.90
2023-01-21T08:18:23.752Z,6.80
2023-01-21T08:20:58.202Z,7.13
2023-01-21T08:23:26.273Z,6.40
2023-01-21T08:25:53.515Z,7.22
2023-01-21T08:28:20.465Z,7.22
2023-01-21T08:30:47.248Z,7.13
2023-01-21T08:33:14.285Z,6.82
2023-01-21T08:35:41.023Z,6.85
2023-01-21T08:38:07.731Z,6.28
2023-01-21T08:40:34.545Z,6.55
2023-01-21T08:43:03.601Z,6.75
2023-01-21T08:45:30.907Z,6.40
2023-01-21T08:47:57.583Z,5.90
2023-01-21T08:50:24.601Z,7.05
2023-01-21T08:52:55.338Z,7.18
2023-01-21T08:55:26.658Z,7.07
2023-01-21T08:57:54.637Z,6.22
2023-01-21T09:00:23.789Z,7.13
2023-01-21T09:02:51.748Z,6.50
2023-01-21T09:05:19.287Z,6.28
2023-01-21T09:07:46.411Z,6.28
2023-01-21T09:10:33.888Z,7.22
2023-01-21T09:13:09.992Z,6.50
2023-01-21T09:15:43.885Z,7.07
2023-01-21T09:18:11.061Z,7.82
2023-01-21T09:20:39.452Z,6.63
2023-01-21T09:23:28.102Z,6.45
2023-01-21T09:26:05.619Z,7.07
2023-01-21T09:28:38.560Z,7.32
2023-01-21T09:31:08.216Z,6.85
2023-01-21T09:33:37.426Z,5.60
2023-01-21T09:36:06.942Z,6.95
2023-01-21T09:38:33.892Z,7.40
2023-01-21T09:41:18.589Z,6.07
2023-01-21T09:43:59.027Z,6.40
2023-01-21T09:47:04.677Z,6.70
2023-01-21T09:49:37.463Z,6.65
2023-01-21T09:52:28.972Z,6.10
2023-01-21T09:54:57.389Z,6.85
2023-01-21T09:57:36.208Z,6.05
2023-01-21T10:00:27.483Z,7.07
2023-01-21T10:03:24.836Z,6.32
2023-01-21T10:06:16.578Z,6.13
2023-01-21T10:08:45.945Z,7.22
2023-01-21T10:11:12.612Z,7.80
2023-01-21T10:14:00.527Z,6.78
2023-01-21T10:16:48.267Z,6.75
2023-01-21T10:19:22.437Z,6.25
2023-01-21T10:21:55.840Z,5.43
2023-01-21T10:24:30.440Z,5.90
2023-01-21T10:26:58.434Z,6.30
2023-01-21T10:29:27.031Z,6.82
2023-01-21T10:31:59.629Z,5.43
2023-01-21T10:34:31.324Z,5.80
2023-01-21T10:37:16.670Z,5.85
2023-01-21T10:40:04.638Z,5.78
2023-01-21T10:42:55.342Z,5.57
2023-01-21T10:45:26.828Z,5.40
2023-01-21T10:48:26.908Z,6.40
2023-01-21T10:51:04.579Z,5.20
2023-01-21T10:54:03.162Z,6.20
2023-01-21T10:56:42.100Z,5.45
2023-01-21T10:59:15.017Z,6.53
2023-01-21T11:01:50.364Z,6.10
2023-01-21T11:04:21.369Z,6.40
2023-01-21T11:07:06.434Z,6.15
2023-01-21T11:09:38.584Z,6.15
2023-01-21T11:12:05.476Z,6.47
2023-01-21T11:14:32.105Z,6.47
2023-01-21T11:16:59.263Z,6.65
2023-01-21T11:19:31.958Z,6.55
2023-01-21T11:22:06.144Z,6.88
2023-01-21T11:24:43.591Z,6.50
2023-01-21T11:27:32.990Z,7.65
2023-01-21T11:29:59.941Z,6.78
2023-01-21T11:32:28.788Z,6.32
2023-01-21T11:35:20.297Z,6.47
2023-01-21T11:37:47.126Z,7.10
2023-01-21T11:40:24.914Z,6.70
2023-01-21T11:42:54.595Z,6.43
2023-01-21T11:45:32.818Z,7.03
2023-01-21T11:48:00.444Z,6.45
2023-01-21T11:50:29.735Z,6.40
2023-01-21T11:53:14.154Z,6.40
2023-01-21T11:55:50.165Z,6.00
2023-01-21T11:58:34.727Z,6.20
2023-01-21T12:01:04.390Z,5.78
2023-01-21T12:03:37.164Z,5.90
2023-01-21T12:06:06.771Z,5.60
2023-01-21T12:08:36.929Z,5.63
2023-01-21T12:11:06.624Z,5.85
2023-01-21T12:14:04.283Z,6.10
2023-01-21T12:16:35.287Z,5.57
2023-01-21T12:19:04.896Z,6.25
2023-01-21T12:21:40.488Z,5.82
2023-01-21T12:24:40.680Z,5.88
2023-01-21T12:27:38.646Z,5.68
2023-01-21T12:30:43.901Z,5.47
2023-01-21T12:33:19.352Z,5.10
2023-01-21T12:35:51.450Z,4.95
2023-01-21T12:38:26.943Z,5.50
2023-01-21T12:41:10.649Z,5.35
2023-01-21T12:43:43.163Z,5.95
2023-01-21T12:46:21.577Z,6.22
2023-01-21T12:48:54.409Z,4.78
2023-01-21T12:51:29.249Z,5.70
2023-01-21T12:54:17.938Z,5.97
2023-01-21T12:57:06.488Z,5.05
2023-01-21T12:59:45.193Z,5.40
2023-01-21T13:02:17.869Z,5.65
2023-01-21T13:04:58.387Z,5.95
2023-01-21T13:07:49.895Z,5.78
2023-01-21T13:10:39.133Z,5.50
2023-01-21T13:13:25.462Z,5.05
2023-01-21T13:15:59.206Z,5.55
2023-01-21T13:18:32.634Z,5.60
2023-01-21T13:21:11.962Z,5.18
2023-01-21T13:23:49.636Z,5.20
2023-01-21T13:26:34.440Z,5.35
2023-01-21T13:29:16.380Z,4.93
2023-01-21T13:31:55.435Z,5.45
2023-01-21T13:34:35.017Z,6.07
2023-01-21T13:37:23.795Z,5.18
2023-01-21T13:40:21.887Z,6.18
2023-01-21T13:42:55.958Z,5.82
2023-01-21T13:45:48.080Z,5.38
2023-01-21T13:48:52.134Z,5.22
2023-01-21T13:51:32.995Z,4.85
2023-01-21T13:54:27.101Z,5.53
2023-01-21T13:57:26.788Z,5.53
2023-01-21T13:59:59.326Z,5.82
2023-01-21T14:02:38.393Z,5.70
2023-01-21T14:05:29.107Z,6.10
2023-01-21T14:08:04.914Z,5.68
2023-01-21T14:10:41.375Z,5.25
2023-01-21T14:13:45.912Z,5.45
2023-01-21T14:16:42.836Z,5.05
2023-01-21T14:19:31.007Z,5.30
2023-01-21T14:22:09.810Z,5.60
2023-01-21T14:24:43.995Z,5.18
2023-01-21T14:27:36.464Z,4.82
2023-01-21T14:30:13.411Z,5.20
2023-01-21T14:32:43.075Z,5.00
2023-01-21T14:35:28.316Z,5.60
2023-01-21T14:38:10.079Z,5.57
2023-01-21T14:40:45.522Z,4.30
2023-01-21T14:43:31.583Z,4.88
2023-01-21T14:46:00.699Z,5.00
2023-01-21T14:48:38.391Z,3.70
2023-01-21T14:51:08.168Z,4.25
2023-01-21T14:53:44.062Z,4.30
2023-01-21T14:56:22.228Z,3.70
2023-01-21T14:58:58.917Z,4.28
2023-01-21T15:01:28.010Z,4.05
2023-01-21T15:03:56.637Z,3.60
2023-01-21T15:06:24.555Z,5.03
2023-01-21T15:08:56.285Z,3.40
2023-01-21T15:11:40.491Z,3.95
2023-01-21T15:14:22.475Z,3.58
2023-01-21T15:16:49.193Z,3.70
2023-01-21T15:19:19.198Z,3.10
2023-01-21T15:22:04.063Z,3.08
2023-01-21T15:24:38.860Z,3.55
2023-01-21T15:27:25.868Z,3.80
2023-01-21T15:29:58.939Z,3.50
2023-01-21T15:32:35.360Z,4.35
2023-01-21T15:35:13.803Z,3.55
2023-01-21T15:37:44.051Z,3.80
2023-01-21T15:40:28.692Z,2.90
2023-01-21T15:43:03.255Z,3.30
2023-01-21T15:45:42.148Z,3.30
2023-01-21T15:48:40.898Z,3.20
2023-01-21T15:51:39.835Z,3.25
2023-01-21T15:54:24.880Z,3.50
2023-01-21T15:57:25.715Z,3.85
2023-01-21T16:00:23.079Z,3.50
2023-01-21T16:03:02.470Z,3.28
2023-01-21T16:05:29.166Z,3.85
2023-01-21T16:08:21.166Z,4.03
2023-01-21T16:11:32.541Z,3.50
2023-01-21T16:14:17.164Z,3.72
2023-01-21T16:17:18.351Z,3.00
2023-01-21T16:19:49.706Z,3.47
2023-01-21T16:22:22.239Z,3.85
2023-01-21T16:24:55.832Z,3.85
2023-01-21T16:27:30.898Z,3.20
2023-01-21T16:29:59.678Z,3.45
2023-01-21T16:32:27.180Z,3.63
2023-01-21T16:34:54.538Z,4.15
2023-01-21T16:37:24.227Z,3.75
2023-01-21T16:39:55.730Z,3.40
2023-01-21T16:42:33.933Z,3.67
2023-01-21T16:45:00.807Z,3.45
2023-01-21T16:47:37.210Z,3.65
2023-01-21T16:50:05.622Z,3.83
2023-01-21T16:52:32.520Z,4.60
2023-01-21T16:54:59.223Z,4.40
2023-01-21T16:57:31.678Z,4.43
2023-01-21T17:00:02.230Z,4.53
2023-01-21T17:02:32.267Z,4.85
2023-01-21T17:05:08.311Z,4.15
2023-01-21T17:07:48.392Z,3.72
2023-01-21T17:10:15.015Z,4.10
2023-01-21T17:12:47.668Z,3.70
2023-01-21T17:15:41.399Z,3.80
2023-01-21T17:18:21.847Z,3.60
2023-01-21T17:21:08.505Z,3.92
2023-01-21T17:23:39.818Z,4.32
2023-01-21T17:26:17.167Z,3.40
2023-01-21T17:28:59.857Z,3.83
2023-01-21T17:31:28.423Z,3.15
2023-01-21T17:34:20.725Z,4.43
2023-01-21T17:36:50.553Z,3.53
2023-01-21T17:39:48.624Z,3.28
2023-01-21T17:42:18.142Z,4.53
2023-01-21T17:44:48.882Z,3.65
2023-01-21T17:47:43.722Z,4.10
2023-01-21T17:50:28.862Z,4.35
2023-01-21T17:53:03.465Z,4.78
2023-01-21T17:55:31.690Z,3.78
2023-01-21T17:58:04.480Z,4.47
2023-01-21T18:00:42.767Z,4.28
2023-01-21T18:03:10.837Z,3.60
2023-01-21T18:05:39.767Z,3.85
2023-01-21T18:08:17.549Z,4.10
2023-01-21T18:10:45.965Z,4.10
2023-01-21T18:13:14.491Z,4.45
2023-01-21T18:15:43.104Z,4.90
2023-01-21T18:18:22.143Z,4.35
2023-01-21T18:20:48.898Z,4.82
2023-01-21T18:23:18.049Z,4.57
2023-01-21T18:25:52.349Z,4.05
2023-01-21T18:28:21.564Z,5.30
2023-01-21T18:30:48.909Z,4.72
2023-01-21T18:33:15.859Z,4.82
2023-01-21T18:35:47.672Z,4.97
2023-01-21T18:38:19.126Z,4.85
2023-01-21T18:40:46.037Z,4.70
2023-01-21T18:43:12.736Z,5.28
2023-01-21T18:45:40.075Z,5.15
2023-01-21T18:48:12.230Z,4.47
2023-01-21T18:50:38.911Z,4.68
2023-01-21T18:53:06.165Z,4.97
2023-01-21T18:55:32.880Z,5.53
2023-01-21T18:57:59.720Z,4.97
2023-01-21T19:00:31.442Z,5.28
2023-01-21T19:03:01.207Z,4.80
2023-01-21T19:05:33.981Z,4.80
2023-01-21T19:08:06.221Z,4.45
2023-01-21T19:10:32.911Z,5.28
2023-01-21T19:12:59.565Z,5.13
2023-01-21T19:15:28.302Z,5.13
2023-01-21T19:17:56.227Z,4.90
2023-01-21T19:20:29.488Z,5.07
2023-01-21T19:22:56.690Z,5.07
2023-01-21T19:25:26.197Z,5.53
2023-01-21T19:27:56.145Z,4.75
2023-01-21T19:30:31.379Z,4.78
2023-01-21T19:33:00.772Z,5.25
2023-01-21T19:35:32.452Z,5.10
2023-01-21T19:38:00.364Z,5.03
2023-01-21T19:40:28.720Z,4.57
2023-01-21T19:42:55.654Z,5.60
2023-01-21T19:45:24.401Z,5.68
2023-01-21T19:47:51.591Z,5.15
2023-01-21T19:50:26.578Z,4.97
2023-01-21T19:52:54.629Z,5.82
2023-01-21T19:55:24.280Z,5.45
2023-01-21T19:58:02.019Z,5.05
2023-01-21T20:00:32.030Z,5.07
2023-01-21T20:02:59.606Z,4.50
2023-01-21T20:05:33.776Z,5.43
2023-01-21T20:08:02.393Z,4.88
2023-01-21T20:10:30.510Z,5.35
2023-01-21T20:12:58.008Z,4.80
2023-01-21T20:15:34.172Z,5.30
2023-01-21T20:18:02.441Z,5.07
2023-01-21T20:20:31.500Z,4.90
2023-01-21T20:22:59.713Z,5.00
2023-01-21T20:25:37.649Z,6.25
2023-01-21T20:28:16.049Z,5.10
2023-01-21T20:30:42.735Z,5.05
2023-01-21T20:33:11.812Z,4.55
2023-01-21T20:35:38.550Z,5.18
2023-01-21T20:38:10.318Z,5.55
2023-01-21T20:40:37.065Z,5.05
2023-01-21T20:43:03.781Z,4.97
2023-01-21T20:45:34.348Z,4.88
2023-01-21T20:48:03.162Z,5.30
2023-01-21T20:50:35.318Z,5.13
2023-01-21T20:53:05.200Z,5.30
2023-01-21T20:55:31.980Z,4.85
2023-01-21T20:57:58.689Z,5.30
2023-01-21T21:00:28.006Z,5.13
2023-01-21T21:02:55.599Z,4.82
2023-01-21T21:05:22.554Z,5.35
2023-01-21T21:07:49.471Z,4.95
2023-01-21T21:10:22.980Z,4.50
2023-01-21T21:12:50.415Z,5.63
2023-01-21T21:15:19.342Z,4.93
2023-01-21T21:17:48.281Z,4.65
2023-01-21T21:20:24.713Z,5.25
2023-01-21T21:22:51.821Z,5.28
2023-01-21T21:25:21.073Z,5.70
2023-01-21T21:27:48.493Z,5.10
2023-01-21T21:30:21.994Z,5.82
2023-01-21T21:32:48.777Z,4.80
2023-01-21T21:35:33.312Z,5.13
2023-01-21T21:38:04.391Z,4.63
2023-01-21T21:40:31.567Z,5.20
2023-01-21T21:43:17.595Z,5.00
2023-01-21T21:46:03.201Z,5.07
2023-01-21T21:48:39.370Z,5.05
2023-01-21T21:51:07.719Z,5.30
2023-01-21T21:53:34.491Z,5.35
2023-01-21T21:56:05.436Z,4.82
2023-01-21T21:58:32.319Z,4.55
2023-01-21T22:01:09.516Z,4.45
2023-01-21T22:03:36.209Z,4.85
2023-01-21T22:06:04.086Z,4.88
2023-01-21T22:08:35.480Z,4.18
2023-01-21T22:11:04.792Z,4.50
2023-01-21T22:13:33.782Z,5.32
2023-01-21T22:16:01.662Z,5.28
2023-01-21T22:18:29.995Z,4.63
2023-01-21T22:21:05.604Z,5.38
2023-01-21T22:23:34.304Z,4.82
2023-01-21T22:26:02.608Z,5.10
2023-01-21T22:28:29.395Z,4.40
2023-01-21T22:31:02.474Z,5.22
2023-01-21T22:33:29.183Z,4.35
2023-01-21T22:35:55.883Z,4.18
2023-01-21T22:38:22.552Z,4.90
2023-01-21T22:40:53.877Z,4.60
2023-01-21T22:43:21.070Z,5.28
2023-01-21T22:45:48.533Z,4.72
2023-01-21T22:48:15.893Z,4.68
2023-01-21T22:50:44.554Z,4.25
2023-01-21T22:53:13.880Z,5.63
2023-01-21T22:55:40.616Z,4.63
2023-01-21T22:58:07.356Z,4.82
2023-01-21T23:00:39.395Z,4.72
2023-01-21T23:03:07.552Z,4.28
2023-01-21T23:05:35.343Z,3.95
2023-01-21T23:08:02.104Z,4.68
2023-01-21T23:10:28.929Z,3.97
2023-01-21T23:12:55.597Z,4.40
2023-01-21T23:15:22.962Z,3.90
2023-01-21T23:17:50.295Z,3.90
2023-01-21T23:20:17.576Z,4.60
2023-01-21T23:22:44.876Z,4.05
2023-01-21T23:25:13.580Z,4.28
2023-01-21T23:27:40.877Z,4.13
2023-01-21T23:30:08.444Z,4.78
2023-01-21T23:32:35.108Z,4.13
2023-01-21T23:35:01.811Z,4.95
2023-01-21T23:37:28.634Z,4.10
2023-01-21T23:39:55.264Z,4.38
2023-01-21T23:42:23.702Z,4.10
2023-01-21T23:44:51.135Z,3.88
2023-01-21T23:47:18.174Z,3.78
2023-01-21T23:49:44.887Z,4.28
2023-01-21T23:52:12.662Z,4.30
2023-01-21T23:54:46.091Z,4.70
2023-01-21T23:57:13.164Z,3.70
2023-01-21T23:59:39.950Z,4.00
